Time;durP1;ratioP1;P1;durP2;ratioP2;P2;SDS_P1;SDS_P2;PMS_P1;PMS_P2;Temp;Humidity;BMP_temperature;BMP_pressure;BME280_temperature;BME280_humidity;BME280_pressure;Samples;Min_cycle;Max_cycle;Signal;HPM_P1;HPM_P2
2022/04/18 00:01:58;;;;;;;3.10;1.90;;;;;;;8.41;47.53;100342.04;117346;1186;23532;-53
2022/04/18 00:04:46;;;;;;;2.40;1.50;;;;;;;8.40;47.57;100334.00;117215;1185;22947;-45
2022/04/18 00:07:15;;;;;;;3.20;1.90;;;;;;;8.39;47.47;100325.27;117256;1186;23475;-46
2022/04/18 00:09:46;;;;;;;;;;;;;;;8.37;47.57;100324.58;117287;1186;22921;-54
2022/04/18 00:12:34;;;;;;;3.60;1.70;;;;;;;8.36;47.61;100319.86;117242;1186;22168;-53
2022/04/18 00:15:10;;;;;;;4.70;2.00;;;;;;;8.33;47.51;100322.67;117224;1186;23553;-45
2022/04/18 00:17:39;;;;;;;3.30;1.70;;;;;;;8.30;47.63;100316.56;117339;1181;21856;-46
2022/04/18 00:20:27;;;;;;;3.70;1.70;;;;;;;8.27;47.48;100308.90;117225;1188;21867;-54
2022/04/18 00:22:56;;;;;;;3.60;1.70;;;;;;;8.24;47.28;100301.02;117229;1189;22930;-53
2022/04/18 00:25:25;;;;;;;4.60;1.60;;;;;;;8.23;47.49;100296.13;117277;1185;23569;-53
2022/04/18 00:28:15;;;;;;;4.50;1.90;;;;;;;8.23;47.47;100290.54;117313;1186;21848;-45
2022/04/18 00:30:44;;;;;;;;;;;;;;;8.23;47.49;100296.14;117297;1186;21880;-45
2022/04/18 00:33:33;;;;;;;2.50;1.80;;;;;;;8.21;47.56;100294.21;117210;1186;21894;-54
2022/04/18 00:36:02;;;;;;;3.70;1.90;;;;;;;8.20;47.47;100289.31;117273;1185;23016;-54
2022/04/18 00:38:50;;;;;;;3.60;2.00;;;;;;;8.18;47.49;100286.36;117306;1185;21847;-54
2022/04/18 00:41:18;;;;;;;2.40;1.70;;;;;;;8.17;47.58;100287.23;117321;1186;23618;-52
2022/04/18 00:43:47;;;;;;;4.80;2.30;;;;;;;8.16;47.61;100293.38;117281;1186;23453;-46
2022/04/18 00:46:25;;;;;;;3.30;1.70;;;;;;;8.17;47.68;100287.23;117309;1186;23487;-54
2022/04/18 00:48:54;;;;;;;5.20;1.90;;;;;;;8.20;47.78;100284.08;117298;1186;21867;-53
2022/04/18 00:51:25;;;;;;;3.10;2.00;;;;;;;8.21;47.76;100279.36;117134;1186;23912;-45
2022/04/18 00:53:55;;;;;;;3.10;2.20;;;;;;;8.19;47.70;100283.73;117271;1186;24165;-45
2022/04/18 00:56:24;;;;;;;3.30;2.00;;;;;;;8.17;47.58;100279.37;117280;1185;22909;-54
2022/04/18 00:58:52;;;;;;;5.20;2.20;;;;;;;8.16;47.81;100269.06;117383;1185;21865;-54
2022/04/18 01:01:22;;;;;;;11.00;2.40;;;;;;;8.14;47.50;100262.45;117286;1185;23470;-53
2022/04/18 01:03:51;;;;;;;2.80;2.00;;;;;;;8.14;47.74;100265.24;117372;1184;21864;-45
2022/04/18 01:06:20;;;;;;;2.70;1.80;;;;;;;8.13;47.63;100268.20;117315;1186;23475;-46
2022/04/18 01:08:50;;;;;;;3.30;2.20;;;;;;;8.12;47.72;100260.89;117259;1187;24988;-54
2022/04/18 01:11:18;;;;;;;3.70;2.40;;;;;;;8.10;47.76;100256.34;117224;1186;23556;-47
2022/04/18 01:13:49;;;;;;;3.50;2.00;;;;;;;8.07;47.68;100258.10;117325;1185;23481;-54
2022/04/18 01:16:18;;;;;;;3.60;2.20;;;;;;;8.02;47.67;100254.96;117220;1185;22691;-46
2022/04/18 01:18:48;;;;;;;3.50;2.10;;;;;;;8.02;47.79;100255.84;117154;1186;24237;-45
2022/04/18 01:21:20;;;;;;;;;;;;;;;8.00;47.73;100252.36;117277;1186;21849;-45
2022/04/18 01:29:43;;;;;;;4.20;2.30;;;;;;;7.95;47.81;100252.73;117297;1186;23167;-54
2022/04/18 01:32:11;;;;;;;4.50;2.40;;;;;;;7.96;47.75;100254.99;117348;1186;23584;-46
2022/04/18 01:34:39;;;;;;;4.20;2.00;;;;;;;7.96;47.69;100259.89;117285;1186;23462;-54
2022/04/18 01:37:08;;;;;;;3.00;2.00;;;;;;;7.96;47.88;100257.26;117141;1186;23452;-46
2022/04/18 01:39:36;;;;;;;3.70;2.50;;;;;;;7.96;47.74;100253.23;117321;1186;22493;-45
2022/04/18 01:42:05;;;;;;;6.10;2.80;;;;;;;7.95;47.69;100244.87;117318;1183;21905;-54
2022/04/18 01:44:33;;;;;;;4.30;2.50;;;;;;;7.94;48.00;100243.30;117305;1186;24163;-47
2022/04/18 01:47:03;;;;;;;4.80;2.10;;;;;;;7.93;47.76;100242.95;117347;1185;23472;-54
2022/04/18 01:49:31;;;;;;;4.40;2.40;;;;;;;7.91;47.90;100245.41;117306;1186;21896;-54
2022/04/18 01:52:00;;;;;;;3.20;2.10;;;;;;;7.89;47.75;100243.32;117356;1186;23448;-54
2022/04/18 01:54:28;;;;;;;3.50;2.20;;;;;;;7.87;47.65;100241.58;117344;1176;23642;-54
2022/04/18 01:56:57;;;;;;;3.50;2.30;;;;;;;7.84;47.71;100237.56;117362;1184;24825;-55
2022/04/18 01:59:25;;;;;;;3.60;2.40;;;;;;;7.82;47.91;100238.78;117255;1189;21983;-54
2022/04/18 02:01:53;;;;;;;4.10;2.40;;;;;;;7.80;47.74;100241.42;117295;1186;22834;-46
2022/04/18 02:04:22;;;;;;;3.30;2.40;;;;;;;7.77;47.92;100239.50;117239;1186;22829;-54
2022/04/18 02:06:50;;;;;;;4.20;2.60;;;;;;;7.74;47.88;100236.71;117259;1186;22807;-55
2022/04/18 02:09:18;;;;;;;3.90;2.60;;;;;;;7.72;47.80;100239.70;117311;1186;23553;-47
2022/04/18 02:12:07;;;;;;;4.40;2.40;;;;;;;7.71;47.87;100238.48;117212;1184;21850;-54
2022/04/18 02:14:36;;;;;;;4.10;2.40;;;;;;;7.66;47.84;100236.05;117210;1183;21852;-54
2022/04/18 02:17:24;;;;;;;3.70;2.30;;;;;;;7.62;48.00;100234.48;117211;1188;21855;-53
2022/04/18 02:19:53;;;;;;;4.20;2.50;;;;;;;7.58;47.61;100240.43;117249;1186;23579;-54
2022/04/18 02:22:41;;;;;;;4.20;2.40;;;;;;;7.53;47.63;100241.13;117219;1186;21900;-45
2022/04/18 02:25:09;;;;;;;3.00;2.00;;;;;;;7.49;47.71;100253.02;117147;1186;23551;-45
2022/04/18 02:27:37;;;;;;;4.20;2.40;;;;;;;7.46;47.84;100252.85;117335;1186;21861;-45
2022/04/18 02:30:09;;;;;;;3.20;2.10;;;;;;;7.43;47.84;100255.65;117266;1185;23578;-45
2022/04/18 02:32:50;;;;;;;2.90;2.20;;;;;;;7.38;47.78;100256.00;117131;1186;21856;-45
2022/04/18 02:35:22;;;;;;;;;;;;;;;7.34;47.99;100258.27;117307;1181;21836;-44
2022/04/18 02:37:50;;;;;;;3.70;2.30;;;;;;;7.31;47.84;100258.27;117092;1186;21879;-45
2022/04/18 02:40:18;;;;;;;4.70;2.20;;;;;;;7.27;47.97;100263.52;117273;1186;23004;-53
2022/04/18 02:42:48;;;;;;;4.70;2.60;;;;;;;7.24;47.99;100263.17;117249;1189;24184;-45
2022/04/18 02:45:19;;;;;;;3.50;2.20;;;;;;;7.23;47.66;100260.21;117335;1186;23557;-45
2022/04/18 02:47:49;;;;;;;3.20;2.20;;;;;;;7.20;47.82;100256.19;117280;1186;23712;-53
2022/04/18 02:50:18;;;;;;;4.30;2.70;;;;;;;7.18;47.87;100254.10;117117;1186;23557;-45
2022/04/18 02:52:47;;;;;;;3.90;2.60;;;;;;;7.12;47.80;100252.52;117290;1186;23579;-53
2022/04/18 02:55:15;;;;;;;3.80;2.40;;;;;;;7.08;47.80;100252.52;117224;1186;22621;-45
2022/04/18 02:57:43;;;;;;;3.90;2.00;;;;;;;7.07;48.18;100247.98;117276;1186;23557;-45
2022/04/18 03:00:12;;;;;;;3.60;2.50;;;;;;;7.06;48.17;100246.60;117242;1186;23550;-53
2022/04/18 03:02:41;;;;;;;3.70;2.60;;;;;;;7.06;48.13;100247.64;117273;1186;23560;-54
2022/04/18 03:05:11;;;;;;;4.20;2.10;;;;;;;7.05;48.12;100250.42;117316;1186;21901;-46
2022/04/18 03:07:41;;;;;;;5.00;3.00;;;;;;;7.06;48.01;100248.34;117240;1186;22090;-54
2022/04/18 03:13:18;;;;;;;5.50;2.60;;;;;;;7.04;47.84;100246.77;117251;1185;21887;-55
2022/04/18 03:15:52;;;;;;;5.60;2.40;;;;;;;7.06;48.08;100251.14;117139;1186;23491;-55
2022/04/18 03:18:21;;;;;;;4.80;3.00;;;;;;;7.06;47.84;100251.48;117385;1186;22618;-46
2022/04/18 03:20:57;;;;;;;4.30;2.50;;;;;;;7.03;47.94;100251.31;117302;1185;24285;-46
2022/04/18 03:23:25;;;;;;;5.70;2.50;;;;;;;7.00;48.21;100256.20;117244;1186;23465;-46
2022/04/18 03:25:53;;;;;;;3.10;2.10;;;;;;;7.00;48.21;100252.70;117282;1185;22920;-45
2022/04/18 03:28:41;;;;;;;7.50;2.80;;;;;;;7.02;48.15;100253.77;117287;1186;22320;-56
2022/04/18 03:31:09;;;;;;;4.50;2.10;;;;;;;7.03;48.37;100249.39;117332;1186;23908;-45
2022/04/18 03:33:39;;;;;;;9.10;4.10;;;;;;;7.05;48.43;100244.52;117275;1185;23479;-50
2022/04/18 03:41:41;;;;;;;5.70;2.50;;;;;;;7.18;48.64;100243.63;117253;1185;21906;-45
2022/04/18 03:44:09;;;;;;;7.00;2.70;;;;;;;7.19;48.44;100245.55;117170;1186;21858;-55
2022/04/18 03:46:53;;;;;;;7.80;2.30;;;;;;;7.20;48.45;100245.90;117311;1185;24205;-46
2022/04/18 03:49:21;;;;;;;4.40;2.30;;;;;;;7.21;48.38;100246.59;117334;1185;23476;-46
2022/04/18 03:51:50;;;;;;;5.60;2.60;;;;;;;7.19;48.42;100248.52;117287;1186;24282;-46
2022/04/18 03:54:20;;;;;;;6.70;3.70;;;;;;;7.22;48.49;100249.21;117327;1185;23653;-56
2022/04/18 03:56:48;;;;;;;8.70;3.70;;;;;;;7.23;48.49;100252.36;117331;1186;23479;-55
2022/04/18 03:59:16;;;;;;;7.00;3.20;;;;;;;7.23;48.46;100249.90;117341;1186;24210;-46
2022/04/18 04:01:45;;;;;;;8.50;4.60;;;;;;;7.21;48.35;100246.95;117325;1186;23488;-56
2022/04/18 04:04:13;;;;;;;6.70;5.00;;;;;;;7.21;48.40;100241.35;117334;1186;23450;-45
2022/04/18 04:06:42;;;;;;;7.50;4.20;;;;;;;7.23;48.52;100242.57;117324;1185;23475;-46
2022/04/18 04:09:10;;;;;;;8.30;4.70;;;;;;;7.27;48.76;100236.47;117378;1186;22649;-56
2022/04/18 04:11:39;;;;;;;9.80;4.50;;;;;;;7.29;48.56;100236.45;117354;1185;22664;-54
2022/04/18 04:14:07;;;;;;;7.20;3.60;;;;;;;7.29;48.36;100229.48;117364;1186;21852;-55
2022/04/18 04:16:38;;;;;;;6.30;4.00;;;;;;;7.28;48.42;100231.05;117297;1185;24165;-55
2022/04/18 04:19:06;;;;;;;4.70;3.20;;;;;;;7.26;48.65;100226.01;117388;1186;23452;-46
2022/04/18 04:21:36;;;;;;;9.80;4.20;;;;;;;7.26;48.63;100222.68;117323;1185;23587;-46
2022/04/18 04:24:04;;;;;;;7.70;3.60;;;;;;;7.26;48.44;100220.76;117344;1186;24165;-46
2022/04/18 04:26:33;;;;;;;4.90;3.40;;;;;;;7.27;48.44;100220.06;117368;1186;23509;-54
2022/04/18 04:29:02;;;;;;;6.10;3.70;;;;;;;7.29;48.49;100223.20;117195;1185;23490;-46
2022/04/18 04:31:31;;;;;;;5.90;3.50;;;;;;;7.28;48.39;100223.89;117053;1186;24878;-46
2022/04/18 04:34:10;;;;;;;4.80;3.50;;;;;;;7.28;48.71;100218.32;117259;1185;23551;-54
2022/04/18 04:36:40;;;;;;;6.20;3.60;;;;;;;7.32;48.60;100213.05;117345;1185;22910;-54
2022/04/18 04:39:08;;;;;;;4.90;3.50;;;;;;;7.35;48.82;100214.80;117240;1185;23577;-54
2022/04/18 04:41:38;;;;;;;5.90;4.20;;;;;;;7.35;48.65;100209.56;117437;1186;21854;-46
2022/04/18 04:44:06;;;;;;;5.70;3.70;;;;;;;7.34;48.63;100206.60;117374;1186;24169;-46
2022/04/18 04:46:36;;;;;;;6.40;4.50;;;;;;;7.35;48.60;100200.67;117334;1185;22520;-55
2022/04/18 04:49:05;;;;;;;6.60;4.20;;;;;;;7.37;48.68;100195.77;117326;1182;23477;-55
2022/04/18 04:51:34;;;;;;;7.70;4.00;;;;;;;7.41;48.94;100196.48;117345;1186;21982;-54
2022/04/18 04:54:02;;;;;;;5.70;4.40;;;;;;;7.44;48.68;100195.77;117339;1186;24718;-54
2022/04/18 04:56:31;;;;;;;8.80;4.60;;;;;;;7.46;48.81;100189.48;117320;1186;23656;-55
2022/04/18 04:58:59;;;;;;;5.00;3.80;;;;;;;7.49;48.96;100190.86;117134;1186;21909;-46
2022/04/18 05:01:29;;;;;;;6.50;4.50;;;;;;;7.52;48.81;100194.52;117310;1185;24022;-46
2022/04/18 05:03:58;;;;;;;7.50;4.90;;;;;;;7.53;48.88;100191.38;117312;1185;23767;-46
2022/04/18 05:06:27;;;;;;;7.90;4.40;;;;;;;7.53;48.90;100190.67;117307;1186;23572;-46
2022/04/18 05:09:15;;;;;;;8.20;4.60;;;;;;;7.53;48.87;100193.45;117268;1186;21858;-54
2022/04/18 05:11:44;;;;;;;6.50;4.80;;;;;;;7.57;49.10;100195.38;117340;1186;23451;-54
2022/04/18 05:14:33;;;;;;;6.20;4.40;;;;;;;7.65;49.07;100193.44;117150;1186;23557;-46
2022/04/18 05:17:02;;;;;;;6.40;4.20;;;;;;;7.69;48.94;100192.91;117133;1186;23480;-46
2022/04/18 05:19:31;;;;;;;6.10;4.10;;;;;;;7.73;48.86;100197.07;117284;1185;21894;-46
2022/04/18 05:22:00;;;;;;;5.90;4.00;;;;;;;7.79;48.98;100196.70;117351;1186;23595;-54
2022/04/18 05:24:29;;;;;;;7.50;4.30;;;;;;;7.84;48.92;100201.92;117294;1186;24167;-54
2022/04/18 05:26:57;;;;;;;5.50;4.10;;;;;;;7.91;48.92;100200.16;117285;1185;21857;-54
2022/04/18 05:29:26;;;;;;;4.90;3.50;;;;;;;7.96;49.07;100197.52;117278;1185;24173;-55
2022/04/18 05:31:54;;;;;;;5.80;3.60;;;;;;;8.03;49.02;100190.48;117323;1186;26612;-54
2022/04/18 05:34:23;;;;;;;6.50;4.20;;;;;;;8.10;49.19;100184.34;117347;1186;24326;-54
2022/04/18 05:36:52;;;;;;;9.70;4.20;;;;;;;8.15;48.99;100186.40;117334;1186;23452;-55
2022/04/18 05:39:20;;;;;;;4.90;3.40;;;;;;;8.24;49.05;100189.33;117338;1186;21856;-45
2022/04/18 05:41:48;;;;;;;5.00;3.60;;;;;;;8.36;49.31;100192.59;117271;1186;23557;-55
2022/04/18 05:44:19;;;;;;;5.10;3.20;;;;;;;8.52;49.52;100192.15;117304;1185;23614;-53
2022/04/18 05:46:47;;;;;;;4.80;3.30;;;;;;;8.66;49.34;100189.61;117273;1185;24165;-54
2022/04/18 05:49:16;;;;;;;5.00;3.20;;;;;;;8.81;49.45;100192.12;117351;1186;23450;-53
2022/04/18 05:51:44;;;;;;;4.70;3.00;;;;;;;8.93;49.32;100191.50;117318;1186;23453;-54
2022/04/18 05:54:13;;;;;;;4.50;3.10;;;;;;;8.94;49.06;100189.73;117328;1186;23569;-53
2022/04/18 05:56:41;;;;;;;4.20;3.00;;;;;;;8.89;48.95;100185.05;117313;1186;23577;-45
2022/04/18 05:59:11;;;;;;;4.70;3.10;;;;;;;8.83;48.88;100184.92;117337;1186;22536;-45
2022/04/18 06:01:40;;;;;;;3.60;2.60;;;;;;;8.83;48.97;100183.55;117322;1183;21937;-45
2022/04/18 06:04:10;;;;;;;5.50;2.80;;;;;;;8.80;49.00;100185.48;117289;1185;22100;-46
2022/04/18 06:06:38;;;;;;;3.60;2.50;;;;;;;8.82;49.20;100184.59;117323;1181;22546;-53
2022/04/18 06:09:07;;;;;;;5.50;2.70;;;;;;;8.84;49.01;100182.81;117352;1184;23550;-45
2022/04/18 06:11:56;;;;;;;4.30;2.60;;;;;;;8.88;48.94;100181.21;117280;1186;21846;-55
2022/04/18 06:14:24;;;;;;;3.60;2.60;;;;;;;8.88;48.89;100179.12;117324;1186;21855;-46
2022/04/18 06:16:57;;;;;;;4.10;2.60;;;;;;;8.86;48.93;100180.00;117109;1186;23528;-54
2022/04/18 06:19:26;;;;;;;4.00;2.50;;;;;;;8.85;48.95;100180.00;117542;1186;23550;-54
2022/04/18 06:21:54;;;;;;;4.90;2.50;;;;;;;8.87;49.02;100175.79;117325;1185;23627;-46
2022/04/18 06:24:43;;;;;;;3.60;2.10;;;;;;;8.95;49.04;100175.73;117238;1186;21854;-54
2022/04/18 06:27:12;;;;;;;2.40;1.50;;;;;;;9.02;49.07;100175.16;118106;1184;22527;-55
2022/04/18 06:29:40;;;;;;;2.90;2.20;;;;;;;9.09;49.00;100174.55;118114;1185;22973;-47
2022/04/18 06:32:09;;;;;;;3.70;2.30;;;;;;;9.16;49.08;100173.95;117068;1187;23556;-54
2022/04/18 06:34:46;;;;;;;3.20;1.90;;;;;;;9.22;48.99;100170.23;117215;1185;23380;-46
2022/04/18 06:37:15;;;;;;;3.30;1.80;;;;;;;9.26;48.97;100170.36;117285;1185;22938;-55
2022/04/18 06:39:44;;;;;;;4.60;2.30;;;;;;;9.30;48.97;100171.02;117305;1186;23522;-55
2022/04/18 06:42:12;;;;;;;5.20;2.00;;;;;;;9.35;48.92;100168.69;117300;1185;23576;-55
2022/04/18 06:44:41;;;;;;;2.80;1.60;;;;;;;9.42;49.02;100168.97;117353;1186;21855;-56
2022/04/18 06:47:09;;;;;;;2.80;1.70;;;;;;;9.47;48.92;100164.01;117406;1184;22927;-56
2022/04/18 06:49:38;;;;;;;3.80;1.90;;;;;;;9.51;48.83;100161.16;117394;1185;23653;-48
2022/04/18 06:52:07;;;;;;;4.10;1.40;;;;;;;9.60;49.02;100157.38;117283;1186;21852;-56
2022/04/18 06:54:36;;;;;;;2.30;1.40;;;;;;;9.72;49.08;100156.01;117305;1186;21854;-47
2022/04/18 06:57:05;;;;;;;2.60;1.40;;;;;;;9.80;48.96;100155.20;117227;1186;23576;-47
2022/04/18 06:59:33;;;;;;;3.20;1.70;;;;;;;9.88;48.94;100154.05;117220;1186;23912;-46
2022/04/18 07:02:02;;;;;;;6.30;1.60;;;;;;;9.97;49.08;100155.35;117890;1186;23448;-55
2022/04/18 07:04:31;;;;;;;4.40;1.80;;;;;;;10.09;49.04;100153.77;117288;1186;23451;-56
2022/04/18 07:07:00;;;;;;;4.10;1.50;;;;;;;10.19;48.97;100146.61;117233;1186;24172;-46
2022/04/18 07:09:48;;;;;;;4.40;1.60;;;;;;;10.30;49.07;100150.85;117242;1186;24173;-47
2022/04/18 07:12:23;;;;;;;2.40;1.00;;;;;;;10.36;48.74;100149.19;117337;1185;23449;-47
2022/04/18 07:15:11;;;;;;;4.50;2.10;;;;;;;10.40;48.77;100146.34;117040;1186;21855;-57
2022/04/18 07:17:39;;;;;;;2.60;1.40;;;;;;;10.43;48.66;100140.87;117281;1185;23569;-56
2022/04/18 07:20:09;;;;;;;3.80;1.50;;;;;;;10.47;48.71;100133.08;117300;1185;21852;-56
2022/04/18 07:22:57;;;;;;;4.20;1.70;;;;;;;10.53;48.66;100131.06;117111;1185;21927;-47
2022/04/18 07:25:26;;;;;;;1.80;0.90;;;;;;;10.62;48.71;100126.52;117356;1186;23649;-48
2022/04/18 07:27:54;;;;;;;1.50;0.90;;;;;;;10.72;48.76;100129.00;117337;1185;21864;-56
2022/04/18 07:30:30;;;;;;;2.30;1.20;;;;;;;10.86;48.71;100126.83;117282;1186;21964;-47
2022/04/18 07:32:59;;;;;;;2.80;1.10;;;;;;;11.06;48.86;100126.13;117273;1186;22643;-56
2022/04/18 07:35:27;;;;;;;2.70;0.90;;;;;;;11.23;48.70;100120.36;117308;1186;23564;-56
2022/04/18 07:40:43;;;;;;;2.70;0.90;;;;;;;11.53;48.57;100127.51;117290;1185;23579;-48
2022/04/18 07:43:11;;;;;;;1.70;0.90;;;;;;;11.54;48.32;100127.65;117324;1186;22992;-48
2022/04/18 07:45:40;;;;;;;2.10;0.80;;;;;;;11.43;48.20;100124.02;117326;1186;23579;-47
2022/04/18 07:48:10;;;;;;;1.80;0.80;;;;;;;11.34;48.06;100115.75;117247;1186;21896;-56
2022/04/18 07:51:54;;;;;;;2.00;0.80;;;;;;;11.27;47.91;100112.91;117278;1185;22818;-56
2022/04/18 07:53:48;;;;;;;1.80;0.80;;;;;;;11.20;47.97;100109.18;117108;1186;23673;-56
2022/04/18 07:56:17;;;;;;;2.00;1.10;;;;;;;11.22;48.15;100105.98;117300;1185;23602;-56
2022/04/18 07:58:46;;;;;;;2.30;1.10;;;;;;;11.37;48.26;100107.97;117343;1183;21896;-56
2022/04/18 08:01:15;;;;;;;2.70;1.20;;;;;;;11.57;48.39;100110.02;117302;1186;22990;-47
2022/04/18 08:03:43;;;;;;;2.80;1.30;;;;;;;11.79;48.48;100111.86;117317;1186;21853;-55
2022/04/18 08:06:11;;;;;;;2.80;1.30;;;;;;;12.02;48.53;100109.77;117304;1185;21861;-48
2022/04/18 08:08:40;;;;;;;2.00;0.90;;;;;;;12.20;48.23;100098.65;118440;1185;22799;-48
2022/04/18 08:11:12;;;;;;;2.20;1.30;;;;;;;12.31;47.96;100101.39;117298;1186;21871;-48
2022/04/18 08:13:47;;;;;;;2.40;1.00;;;;;;;12.36;48.01;100094.24;117330;1186;22946;-47
2022/04/18 08:16:16;;;;;;;3.00;1.50;;;;;;;12.38;47.86;100093.48;117252;1186;23484;-57
2022/04/18 08:18:45;;;;;;;2.90;1.10;;;;;;;12.51;47.90;100095.83;117320;1183;21851;-47
2022/04/18 08:21:15;;;;;;;2.50;1.20;;;;;;;12.62;47.90;100090.60;117326;1185;23055;-48
2022/04/18 08:23:44;;;;;;;2.60;1.10;;;;;;;12.77;47.98;100089.52;117276;1186;21862;-47
2022/04/18 08:26:13;;;;;;;1.50;0.90;;;;;;;12.99;48.22;100075.56;117205;1186;21909;-57
2022/04/18 08:28:42;;;;;;;2.30;1.20;;;;;;;13.26;48.23;100070.43;117339;1186;23544;-57
2022/04/18 08:31:10;;;;;;;1.70;0.80;;;;;;;13.54;48.26;100070.34;117145;1186;21953;-56
2022/04/18 08:33:39;;;;;;;3.50;1.10;;;;;;;13.84;48.12;100066.11;117264;1186;24211;-48
2022/04/18 08:36:09;;;;;;;2.20;1.10;;;;;;;14.07;48.10;100064.87;117298;1185;24176;-57
2022/04/18 08:38:38;;;;;;;4.80;1.30;;;;;;;14.26;48.03;100054.36;117634;1186;22054;-48
2022/04/18 08:41:09;;;;;;;1.70;0.90;;;;;;;14.47;48.14;100049.63;117258;1185;24162;-48
2022/04/18 08:43:38;;;;;;;2.40;1.10;;;;;;;14.76;48.01;100046.75;117100;1187;22894;-56
2022/04/18 08:46:07;;;;;;;4.00;1.10;;;;;;;14.97;47.92;100055.03;117267;1186;21852;-48
2022/04/18 08:54:10;;;;;;;1.70;0.80;;;;;;;15.32;47.46;100060.13;117104;1187;23487;-57
2022/04/18 08:56:39;;;;;;;1.00;0.90;;;;;;;15.40;47.35;100058.92;117355;1186;24176;-57
2022/04/18 08:59:08;;;;;;;4.20;1.00;;;;;;;15.44;46.93;100054.73;117235;1186;24163;-48
2022/04/18 09:01:46;;;;;;;1.10;0.60;;;;;;;15.33;46.66;100045.92;117267;1189;24150;-48
2022/04/18 09:04:15;;;;;;;4.20;0.90;;;;;;;15.24;46.74;100049.46;117300;1184;21853;-57
2022/04/18 09:06:44;;;;;;;1.20;0.70;;;;;;;15.18;46.64;100060.98;117115;1187;23450;-48
2022/04/18 09:09:12;;;;;;;2.10;0.90;;;;;;;15.24;46.79;100053.52;117343;1185;23595;-48
2022/04/18 09:11:41;;;;;;;1.20;0.70;;;;;;;15.34;46.90;100054.38;117371;1185;22992;-57
2022/04/18 09:14:15;;;;;;;1.70;0.70;;;;;;;15.51;46.90;100051.46;117119;1187;23554;-48
2022/04/18 09:16:43;;;;;;;1.00;0.80;;;;;;;15.63;46.48;100051.52;117397;1186;22922;-57
2022/04/18 09:19:16;;;;;;;3.10;0.80;;;;;;;15.54;46.25;100052.03;117284;1186;23599;-48
2022/04/18 09:21:55;;;;;;;2.70;0.80;;;;;;;15.46;46.14;100063.48;117244;1186;23563;-47
2022/04/18 09:24:35;;;;;;;1.70;0.80;;;;;;;15.30;46.02;100062.29;117263;1186;23577;-48
2022/04/18 09:27:06;;;;;;;1.50;0.70;;;;;;;15.20;45.91;100071.33;117269;1185;21857;-48
2022/04/18 09:29:38;;;;;;;3.10;1.00;;;;;;;15.12;45.82;100067.71;117274;1188;21854;-57
2022/04/18 09:32:09;;;;;;;2.90;0.90;;;;;;;15.14;45.73;100058.64;117296;1186;21857;-57
2022/04/18 09:34:38;;;;;;;2.50;1.10;;;;;;;15.11;45.45;100055.40;117260;1185;22156;-57
2022/04/18 09:37:17;;;;;;;1.30;0.70;;;;;;;15.02;45.41;100042.81;117095;1182;21855;-57
2022/04/18 09:39:51;;;;;;;1.50;0.80;;;;;;;14.93;45.37;100044.55;117298;1186;21912;-57
2022/04/18 09:42:23;;;;;;;1.70;0.90;;;;;;;14.87;45.27;100042.97;117269;1186;23581;-49
2022/04/18 09:44:52;;;;;;;1.80;0.90;;;;;;;14.82;45.16;100037.70;117293;1186;21853;-48
2022/04/18 09:47:22;;;;;;;3.10;0.70;;;;;;;14.69;45.11;100040.23;117195;1185;23569;-57
2022/04/18 09:49:52;;;;;;;2.20;0.80;;;;;;;14.71;45.39;100047.08;117298;1185;21864;-57
2022/04/18 09:52:20;;;;;;;1.80;0.60;;;;;;;14.94;45.75;100046.63;117213;1186;22809;-49
2022/04/18 09:54:54;;;;;;;10.00;1.00;;;;;;;15.28;45.71;100048.77;117451;1186;22929;-48
2022/04/18 09:57:27;;;;;;;1.70;0.80;;;;;;;15.46;45.40;100044.55;117240;1185;22919;-57
2022/04/18 09:59:56;;;;;;;1.50;0.80;;;;;;;15.54;45.48;100040.70;117286;1185;21854;-56
2022/04/18 10:02:25;;;;;;;3.50;0.70;;;;;;;15.71;45.43;100040.45;117302;1185;22739;-57
2022/04/18 10:04:54;;;;;;;3.00;0.90;;;;;;;15.86;45.04;100034.37;117222;1186;22932;-48
2022/04/18 10:07:34;;;;;;;2.00;0.90;;;;;;;15.94;45.33;100032.47;117067;1186;24194;-48
2022/04/18 10:10:03;;;;;;;1.20;0.80;;;;;;;16.13;45.14;100021.97;117167;1186;23450;-48
2022/04/18 10:12:51;;;;;;;1.60;1.00;;;;;;;16.15;44.81;100029.52;117358;1185;23851;-46
2022/04/18 10:15:21;;;;;;;1.10;0.80;;;;;;;16.13;45.17;100035.95;117280;1186;23456;-54
2022/04/18 10:18:10;;;;;;;1.30;1.00;;;;;;;16.31;45.03;100035.92;117269;1186;23451;-48
2022/04/18 10:21:04;;;;;;;1.60;0.80;;;;;;;16.36;44.51;100035.56;117281;1185;24168;-58
2022/04/18 10:24:08;;;;;;;2.60;0.80;;;;;;;16.34;44.76;100030.69;117227;1183;22323;-57
2022/04/18 10:27:05;;;;;;;1.90;0.80;;;;;;;16.61;45.12;100026.17;117314;1186;23438;-48
2022/04/18 10:29:40;;;;;;;4.60;0.80;;;;;;;16.79;44.74;100023.09;117078;1186;21919;-57
2022/04/18 10:32:08;;;;;;;2.10;0.90;;;;;;;16.84;44.63;100025.73;117413;1186;21898;-57
2022/04/18 10:34:39;;;;;;;2.70;0.80;;;;;;;17.07;45.12;100023.66;117106;1187;21885;-56
2022/04/18 10:37:09;;;;;;;;;;;;;;;17.34;44.92;100018.06;117046;1187;21845;-57
2022/04/18 10:39:38;;;;;;;1.80;0.70;;;;;;;17.52;44.92;100014.36;117243;1186;23602;-58
2022/04/18 10:42:22;;;;;;;2.40;0.70;;;;;;;17.63;44.65;100020.05;117265;1186;21887;-57
2022/04/18 10:44:58;;;;;;;1.50;0.70;;;;;;;17.62;44.42;100024.34;117303;1186;23558;-57
2022/04/18 10:47:48;;;;;;;1.40;0.90;;;;;;;17.41;43.93;100020.70;117277;1185;23652;-49
2022/04/18 10:50:20;;;;;;;1.40;0.90;;;;;;;17.21;43.85;100013.48;117106;1186;21872;-46
2022/04/18 10:53:08;;;;;;;1.80;0.90;;;;;;;17.18;43.94;100003.02;117402;1186;21856;-47
2022/04/18 10:55:56;;;;;;;3.60;0.70;;;;;;;17.20;44.21;99999.69;117292;1186;21846;-56
2022/04/18 10:58:30;;;;;;;1.10;0.60;;;;;;;17.31;44.05;100000.44;117306;1186;22845;-56
2022/04/18 11:00:59;;;;;;;1.40;0.70;;;;;;;17.36;43.85;100002.14;117249;1181;21992;-47
2022/04/18 11:03:41;;;;;;;1.30;0.70;;;;;;;17.48;43.95;99998.94;117292;1186;23556;-47
2022/04/18 11:06:20;;;;;;;1.10;0.60;;;;;;;17.49;43.64;100005.27;117292;1186;21862;-48
2022/04/18 11:09:08;;;;;;;1.30;0.70;;;;;;;17.47;43.40;99999.48;117293;1186;23559;-47
2022/04/18 11:12:06;;;;;;;1.50;0.70;;;;;;;17.42;43.03;99992.66;117162;1186;21854;-47
2022/04/18 11:14:38;;;;;;;2.70;0.90;;;;;;;17.48;43.52;99997.15;117037;1186;24041;-56
2022/04/18 11:17:06;;;;;;;1.60;0.70;;;;;;;17.58;43.45;99988.89;118854;1185;24162;-47
2022/04/18 11:19:37;;;;;;;1.60;0.80;;;;;;;17.63;43.21;99992.02;117256;1186;23560;-47
2022/04/18 11:22:07;;;;;;;1.40;0.60;;;;;;;17.72;43.49;99996.39;117297;1185;23544;-56
2022/04/18 11:24:54;;;;;;;0.80;0.40;;;;;;;17.84;43.28;99987.83;117306;1185;22465;-56
2022/04/18 11:27:25;;;;;;;1.90;0.80;;;;;;;17.90;43.29;99975.98;117326;1183;21857;-48
2022/04/18 11:29:55;;;;;;;1.90;0.80;;;;;;;17.92;43.01;99966.46;117294;1186;23559;-56
2022/04/18 11:32:26;;;;;;;1.60;0.80;;;;;;;17.82;42.62;99963.79;117180;1186;21855;-48
2022/04/18 11:34:56;;;;;;;1.40;0.80;;;;;;;17.55;42.18;99967.92;117247;1186;21857;-55
2022/04/18 11:37:28;;;;;;;2.80;0.80;;;;;;;17.21;41.39;99974.14;117308;1185;21857;-48
2022/04/18 11:39:59;;;;;;;1.50;0.80;;;;;;;16.88;42.04;99973.27;117222;1186;22933;-55
2022/04/18 11:42:29;;;;;;;2.40;0.80;;;;;;;16.94;42.45;99967.19;117284;1186;22822;-47
2022/04/18 11:44:58;;;;;;;;;;;;;;;17.12;42.80;99969.58;117119;1182;22932;-56
2022/04/18 11:47:30;;;;;;;3.50;0.90;;;;;;;17.42;43.08;99971.89;117298;1180;22929;-56
2022/04/18 11:50:03;;;;;;;2.30;0.70;;;;;;;17.79;42.98;99972.27;117068;1189;24159;-55
2022/04/18 11:52:42;;;;;;;1.40;0.70;;;;;;;17.87;42.44;99966.73;117201;1186;24258;-48
2022/04/18 11:55:15;;;;;;;1.20;0.70;;;;;;;17.71;42.13;99974.98;117276;1186;23612;-47
2022/04/18 11:57:48;;;;;;;2.10;0.80;;;;;;;17.37;41.74;99976.05;117266;1186;21893;-48
2022/04/18 12:06:44;;;;;;;1.80;0.80;;;;;;;16.94;41.40;99970.36;117277;1186;23450;-47
2022/04/18 12:08:46;;;;;;;1.70;0.80;;;;;;;15.90;41.18;99972.82;117241;1186;23454;-47
2022/04/18 12:11:15;;;;;;;4.70;1.60;;;;;;;15.62;41.37;99969.68;117250;1186;23464;-52
2022/04/18 12:13:45;;;;;;;6.10;3.60;;;;;;;15.51;41.47;99969.95;117254;1187;23497;-55
2022/04/18 12:16:21;;;;;;;2.50;1.30;;;;;;;15.40;41.38;99966.11;117293;1186;23563;-56